sensor_id;sensor_type;location;lat;lon;timestamp;P1;P4;P2;P0;N10;N4;N25;N1;N05;TS
70689;SPS30;58266;52.166;5.290;2023-09-19T00:01:05;2.62;2.56;2.27;1.81;14.50;14.48;14.41;13.99;11.78;0.70
70689;SPS30;58266;52.166;5.290;2023-09-19T00:03:07;2.29;2.24;2.00;1.62;12.97;12.96;12.90;12.55;10.62;0.69
70689;SPS30;58266;52.166;5.290;2023-09-19T00:05:07;2.16;2.11;1.87;1.50;12.01;12.00;11.94;11.60;9.78;0.71
70689;SPS30;58266;52.166;5.290;2023-09-19T00:07:07;2.25;2.20;1.93;1.52;12.18;12.17;12.10;11.73;9.84;0.71
70689;SPS30;58266;52.166;5.290;2023-09-19T00:09:07;2.00;1.96;1.74;1.40;11.19;11.19;11.13;10.82;9.12;0.69
70689;SPS30;58266;52.166;5.290;2023-09-19T00:11:07;2.17;2.13;1.92;1.58;12.66;12.65;12.59;12.29;10.45;0.66
70689;SPS30;58266;52.166;5.290;2023-09-19T00:13:08;1.84;1.81;1.65;1.37;10.99;10.98;10.94;10.70;9.12;0.64
70689;SPS30;58266;52.166;5.290;2023-09-19T00:15:08;1.90;1.87;1.71;1.43;11.46;11.45;11.41;11.17;9.54;0.63
70689;SPS30;58266;52.166;5.290;2023-09-19T00:17:16;1.98;1.95;1.79;1.50;12.04;12.03;11.98;11.74;10.04;0.62
70689;SPS30;58266;52.166;5.290;2023-09-19T00:19:17;1.83;1.79;1.63;1.35;10.83;10.82;10.78;10.54;8.98;0.63
70689;SPS30;58266;52.166;5.290;2023-09-19T00:21:17;2.18;2.14;1.94;1.60;12.84;12.83;12.78;12.49;10.62;0.64
70689;SPS30;58266;52.166;5.290;2023-09-19T00:23:17;1.94;1.90;1.70;1.38;11.07;11.06;11.01;10.73;9.08;0.64
70689;SPS30;58266;52.166;5.290;2023-09-19T00:25:17;2.23;2.18;1.95;1.57;12.59;12.58;12.52;12.18;10.30;0.65
70689;SPS30;58266;52.166;5.290;2023-09-19T00:27:18;2.16;2.11;1.88;1.51;12.07;12.06;12.00;11.67;9.84;0.66
70689;SPS30;58266;52.166;5.290;2023-09-19T00:29:18;2.12;2.07;1.84;1.47;11.82;11.81;11.75;11.41;9.62;0.65
70689;SPS30;58266;52.166;5.290;2023-09-19T00:31:18;1.98;1.94;1.74;1.41;11.28;11.27;11.22;10.93;9.25;0.66
70689;SPS30;58266;52.166;5.290;2023-09-19T00:33:18;2.08;2.04;1.86;1.54;12.30;12.29;12.24;11.97;10.19;0.64
70689;SPS30;58266;52.166;5.290;2023-09-19T00:35:19;1.80;1.77;1.62;1.36;10.87;10.86;10.82;10.60;9.06;0.63
70689;SPS30;58266;52.166;5.290;2023-09-19T00:37:19;1.86;1.83;1.68;1.41;11.27;11.26;11.22;11.00;9.40;0.63
70689;SPS30;58266;52.166;5.290;2023-09-19T00:39:19;2.08;2.04;1.85;1.53;12.22;12.21;12.16;11.88;10.11;0.63
70689;SPS30;58266;52.166;5.290;2023-09-19T00:41:19;2.05;2.01;1.81;1.48;11.90;11.89;11.84;11.55;9.80;0.63
70689;SPS30;58266;52.166;5.290;2023-09-19T00:43:19;2.31;2.26;2.05;1.68;13.47;13.46;13.40;13.08;11.11;0.63
70689;SPS30;58266;52.166;5.290;2023-09-19T00:45:21;1.93;1.89;1.70;1.38;11.09;11.08;11.03;10.75;9.12;0.65
70689;SPS30;58266;52.166;5.290;2023-09-19T00:47:21;2.14;2.09;1.88;1.52;12.16;12.15;12.09;11.77;9.96;0.65
70689;SPS30;58266;52.166;5.290;2023-09-19T00:49:21;2.08;2.04;1.84;1.51;12.07;12.06;12.01;11.72;9.95;0.63
70689;SPS30;58266;52.166;5.290;2023-09-19T00:51:22;1.80;1.77;1.62;1.36;10.90;10.89;10.85;10.63;9.08;0.63
70689;SPS30;58266;52.166;5.290;2023-09-19T00:55:33;1.83;1.80;1.66;1.41;11.32;11.31;11.27;11.07;9.49;0.61
70689;SPS30;58266;52.166;5.290;2023-09-19T00:57:36;1.64;1.62;1.51;1.30;10.41;10.40;10.37;10.21;8.78;0.61
70689;SPS30;58266;52.166;5.290;2023-09-19T00:59:37;1.73;1.71;1.60;1.39;11.09;11.08;11.05;10.88;9.38;0.60
70689;SPS30;58266;52.166;5.290;2023-09-19T01:01:39;1.98;1.95;1.83;1.58;12.65;12.65;12.61;12.42;10.70;0.61
70689;SPS30;58266;52.166;5.290;2023-09-19T01:03:39;1.93;1.90;1.78;1.53;12.27;12.27;12.23;12.04;10.36;0.63
70689;SPS30;58266;52.166;5.290;2023-09-19T01:05:41;1.82;1.79;1.66;1.40;11.24;11.24;11.20;10.99;9.42;0.64
70689;SPS30;58266;52.166;5.290;2023-09-19T01:07:41;2.08;2.05;1.91;1.63;13.08;13.08;13.04;12.82;11.02;0.63
70689;SPS30;58266;52.166;5.290;2023-09-19T01:11:50;1.84;1.81;1.66;1.39;11.12;11.11;11.07;10.84;9.26;0.63
70689;SPS30;58266;52.166;5.290;2023-09-19T01:14:15;1.77;1.74;1.60;1.36;10.87;10.86;10.82;10.62;9.10;0.63
70689;SPS30;58266;52.166;5.290;2023-09-19T01:16:28;1.86;1.83;1.70;1.45;11.62;11.61;11.57;11.37;9.76;0.64
70689;SPS30;58266;52.166;5.290;2023-09-19T01:18:38;1.89;1.86;1.70;1.43;11.47;11.46;11.42;11.19;9.57;0.65
70689;SPS30;58266;52.166;5.290;2023-09-19T01:20:54;1.81;1.77;1.59;1.30;10.38;10.37;10.32;10.06;8.53;0.67
70689;SPS30;58266;52.166;5.290;2023-09-19T01:25:18;1.79;1.76;1.61;1.34;10.71;10.70;10.66;10.42;8.89;0.65
70689;SPS30;58266;52.166;5.290;2023-09-19T01:31:32;1.93;1.90;1.76;1.50;12.04;12.03;11.99;11.78;10.11;0.64
70689;SPS30;58266;52.166;5.290;2023-09-19T01:35:53;1.97;1.94;1.77;1.47;11.81;11.80;11.75;11.50;9.81;0.66
70689;SPS30;58266;52.166;5.290;2023-09-19T01:37:53;1.91;1.88;1.72;1.44;11.49;11.49;11.44;11.20;9.57;0.64
70689;SPS30;58266;52.166;5.290;2023-09-19T01:40:10;1.89;1.86;1.70;1.42;11.37;11.36;11.31;11.08;9.46;0.65
70689;SPS30;58266;52.166;5.290;2023-09-19T01:42:14;1.73;1.71;1.57;1.33;10.63;10.62;10.59;10.38;8.89;0.65
70689;SPS30;58266;52.166;5.290;2023-09-19T01:44:40;2.17;2.13;1.94;1.62;12.99;12.98;12.93;12.65;10.80;0.66
70689;SPS30;58266;52.166;5.290;2023-09-19T01:46:49;2.10;2.07;1.87;1.55;12.39;12.39;12.33;12.05;10.25;0.65
70689;SPS30;58266;52.166;5.290;2023-09-19T01:49:08;2.01;1.97;1.81;1.52;12.18;12.17;12.13;11.88;10.16;0.65
70689;SPS30;58266;52.166;5.290;2023-09-19T01:51:20;1.92;1.89;1.76;1.50;12.04;12.03;12.00;11.79;10.14;0.64
70689;SPS30;58266;52.166;5.290;2023-09-19T01:53:33;1.80;1.77;1.65;1.42;11.39;11.38;11.35;11.16;9.60;0.64
70689;SPS30;58266;52.166;5.290;2023-09-19T01:55:36;1.78;1.76;1.64;1.40;11.23;11.22;11.19;11.00;9.46;0.63
70689;SPS30;58266;52.166;5.290;2023-09-19T01:57:42;1.77;1.75;1.62;1.39;11.10;11.09;11.06;10.86;9.33;0.64
70689;SPS30;58266;52.166;5.290;2023-09-19T01:59:54;2.02;2.00;1.86;1.61;12.85;12.84;12.81;12.60;10.85;0.63
70689;SPS30;58266;52.166;5.290;2023-09-19T02:02:00;1.99;1.96;1.83;1.59;12.69;12.68;12.65;12.45;10.72;0.62
70689;SPS30;58266;52.166;5.290;2023-09-19T02:04:01;2.06;2.03;1.89;1.62;12.96;12.96;12.92;12.70;10.91;0.62
70689;SPS30;58266;52.166;5.290;2023-09-19T02:06:02;1.83;1.81;1.70;1.48;11.87;11.86;11.83;11.67;10.08;0.60
70689;SPS30;58266;52.166;5.290;2023-09-19T02:08:02;1.72;1.70;1.63;1.46;11.65;11.64;11.62;11.50;9.99;0.59
70689;SPS30;58266;52.166;5.290;2023-09-19T02:10:03;1.74;1.73;1.65;1.47;11.72;11.71;11.69;11.56;10.03;0.60
70689;SPS30;58266;52.166;5.290;2023-09-19T02:12:05;1.88;1.86;1.75;1.53;12.22;12.22;12.19;12.01;10.38;0.62
70689;SPS30;58266;52.166;5.290;2023-09-19T02:14:09;2.04;2.01;1.88;1.62;12.97;12.96;12.93;12.72;10.95;0.62
70689;SPS30;58266;52.166;5.290;2023-09-19T02:16:09;1.92;1.89;1.77;1.53;12.24;12.23;12.20;12.00;10.34;0.62
70689;SPS30;58266;52.166;5.290;2023-09-19T02:18:11;1.92;1.89;1.75;1.49;11.91;11.91;11.87;11.65;10.00;0.64
70689;SPS30;58266;52.166;5.290;2023-09-19T02:20:11;1.94;1.91;1.75;1.47;11.76;11.75;11.71;11.47;9.80;0.65
70689;SPS30;58266;52.166;5.290;2023-09-19T02:22:12;2.05;2.02;1.83;1.51;12.11;12.10;12.05;11.78;10.02;0.67
70689;SPS30;58266;52.166;5.290;2023-09-19T02:24:12;2.28;2.24;2.02;1.66;13.29;13.28;13.23;12.91;10.96;0.68
70689;SPS30;58266;52.166;5.290;2023-09-19T02:26:12;2.22;2.17;1.95;1.58;12.64;12.63;12.57;12.24;10.36;0.69
70689;SPS30;58266;52.166;5.290;2023-09-19T02:28:12;2.28;2.24;2.03;1.68;13.46;13.45;13.39;13.09;11.14;0.66
70689;SPS30;58266;52.166;5.290;2023-09-19T02:30:13;2.21;2.17;1.99;1.68;13.43;13.42;13.38;13.11;11.22;0.63
70689;SPS30;58266;52.166;5.290;2023-09-19T02:32:13;2.16;2.13;1.98;1.69;13.49;13.48;13.44;13.20;11.33;0.64
70689;SPS30;58266;52.166;5.290;2023-09-19T02:34:13;2.06;2.03;1.88;1.60;12.83;12.82;12.78;12.55;10.77;0.65
70689;SPS30;58266;52.166;5.290;2023-09-19T02:36:15;2.05;2.02;1.87;1.58;12.67;12.66;12.62;12.38;10.61;0.65
70689;SPS30;58266;52.166;5.290;2023-09-19T02:38:15;2.27;2.23;2.05;1.72;13.81;13.80;13.75;13.48;11.53;0.64
70689;SPS30;58266;52.166;5.290;2023-09-19T02:40:16;2.10;2.06;1.87;1.55;12.42;12.41;12.36;12.08;10.29;0.65
70689;SPS30;58266;52.166;5.290;2023-09-19T02:42:16;2.39;2.34;2.11;1.73;13.86;13.85;13.79;13.46;11.42;0.66
70689;SPS30;58266;52.166;5.290;2023-09-19T02:44:17;2.44;2.38;2.11;1.68;13.48;13.47;13.40;13.01;10.95;0.68
70689;SPS30;58266;52.166;5.290;2023-09-19T02:46:17;2.61;2.55;2.22;1.73;13.88;13.86;13.78;13.33;11.14;0.69
70689;SPS30;58266;52.166;5.290;2023-09-19T02:48:17;2.37;2.32;2.06;1.64;13.17;13.16;13.09;12.72;10.72;0.68
70689;SPS30;58266;52.166;5.290;2023-09-19T02:50:17;2.55;2.49;2.22;1.78;14.25;14.24;14.17;13.77;11.62;0.67
70689;SPS30;58266;52.166;5.290;2023-09-19T02:52:18;2.58;2.52;2.25;1.82;14.56;14.55;14.48;14.09;11.91;0.67
70689;SPS30;58266;52.166;5.290;2023-09-19T02:54:18;2.45;2.39;2.12;1.69;13.54;13.53;13.46;13.07;11.01;0.68
70689;SPS30;58266;52.166;5.290;2023-09-19T02:56:19;2.38;2.33;2.05;1.62;12.96;12.94;12.87;12.48;10.47;0.69
70689;SPS30;58266;52.166;5.290;2023-09-19T02:58:19;2.79;2.72;2.35;1.79;14.40;14.38;14.29;13.77;11.44;0.70
70689;SPS30;58266;52.166;5.290;2023-09-19T03:00:20;2.88;2.80;2.44;1.89;15.17;15.16;15.06;14.56;12.15;0.70
70689;SPS30;58266;52.166;5.290;2023-09-19T03:02:21;2.88;2.81;2.45;1.90;15.22;15.21;15.12;14.61;12.19;0.71
70689;SPS30;58266;52.166;5.290;2023-09-19T03:04:22;2.83;2.76;2.42;1.89;15.16;15.14;15.05;14.57;12.20;0.70
70689;SPS30;58266;52.166;5.290;2023-09-19T03:06:22;2.62;2.56;2.27;1.80;14.42;14.41;14.33;13.91;11.70;0.68
70689;SPS30;58266;52.166;5.290;2023-09-19T03:08:22;2.90;2.83;2.47;1.92;15.40;15.38;15.29;14.79;12.36;0.70
70689;SPS30;58266;52.166;5.290;2023-09-19T03:10:22;2.56;2.49;2.18;1.70;13.64;13.63;13.55;13.11;10.96;0.69
70689;SPS30;58266;52.166;5.290;2023-09-19T03:12:22;2.99;2.92;2.56;2.01;16.12;16.10;16.01;15.50;12.99;0.70
70689;SPS30;58266;52.166;5.290;2023-09-19T03:14:22;3.29;3.20;2.76;2.09;16.81;16.79;16.68;16.06;13.32;0.71
70689;SPS30;58266;52.166;5.290;2023-09-19T03:16:23;3.49;3.39;2.90;2.17;17.40;17.38;17.25;16.56;13.66;0.72
70689;SPS30;58266;52.166;5.290;2023-09-19T03:18:23;3.24;3.16;2.76;2.14;17.15;17.13;17.03;16.46;13.75;0.68
70689;SPS30;58266;52.166;5.290;2023-09-19T03:20:23;2.81;2.74;2.39;1.85;14.86;14.84;14.75;14.26;11.91;0.68
70689;SPS30;58266;52.166;5.290;2023-09-19T03:22:26;3.22;3.14;2.72;2.08;16.67;16.65;16.54;15.95;13.26;0.68
70689;SPS30;58266;52.166;5.290;2023-09-19T03:24:26;3.08;2.99;2.55;1.89;15.20;15.18;15.07;14.45;11.90;0.70
70689;SPS30;58266;52.166;5.290;2023-09-19T03:26:26;3.87;3.75;3.16;2.29;18.42;18.39;18.24;17.42;14.23;0.71
70689;SPS30;58266;52.166;5.290;2023-09-19T03:28:26;3.84;3.72;3.13;2.27;18.25;18.23;18.07;17.26;14.09;0.72
70689;SPS30;58266;52.166;5.290;2023-09-19T03:30:27;3.52;3.42;2.91;2.16;17.35;17.33;17.20;16.50;13.58;0.70
70689;SPS30;58266;52.166;5.290;2023-09-19T03:32:27;3.60;3.51;3.03;2.30;18.47;18.45;18.32;17.65;14.64;0.69
70689;SPS30;58266;52.166;5.290;2023-09-19T03:34:27;3.22;3.14;2.75;2.13;17.12;17.11;17.00;16.44;13.74;0.69
70689;SPS30;58266;52.166;5.290;2023-09-19T03:36:28;3.40;3.32;2.92;2.30;18.43;18.41;18.31;17.74;14.88;0.69
70689;SPS30;58266;52.166;5.290;2023-09-19T03:38:28;3.58;3.49;3.04;2.35;18.82;18.80;18.68;18.04;15.05;0.70
70689;SPS30;58266;52.166;5.290;2023-09-19T03:40:29;3.64;3.55;3.06;2.32;18.64;18.62;18.49;17.81;14.77;0.73
70689;SPS30;58266;52.166;5.290;2023-09-19T03:42:29;3.28;3.19;2.73;2.04;16.42;16.40;16.28;15.64;12.92;0.73
70689;SPS30;58266;52.166;5.290;2023-09-19T03:44:29;3.24;3.16;2.73;2.07;16.65;16.63;16.52;15.91;13.21;0.72
70689;SPS30;58266;52.166;5.290;2023-09-19T03:46:29;3.11;3.03;2.64;2.05;16.41;16.39;16.29;15.74;13.14;0.70
70689;SPS30;58266;52.166;5.290;2023-09-19T03:48:29;3.11;3.04;2.67;2.11;16.90;16.89;16.79;16.28;13.66;0.68
70689;SPS30;58266;52.166;5.290;2023-09-19T03:50:30;3.50;3.41;2.98;2.31;18.50;18.48;18.37;17.76;14.83;0.67
70689;SPS30;58266;52.166;5.290;2023-09-19T03:52:30;3.41;3.31;2.85;2.15;17.26;17.24;17.12;16.47;13.64;0.69
70689;SPS30;58266;52.166;5.290;2023-09-19T03:54:30;3.46;3.36;2.85;2.09;16.81;16.79;16.66;15.94;13.08;0.70
70689;SPS30;58266;52.166;5.290;2023-09-19T03:56:30;3.67;3.56;2.98;2.15;17.28;17.26;17.11;16.32;13.30;0.71
70689;SPS30;58266;52.166;5.290;2023-09-19T03:58:30;4.05;3.91;3.24;2.28;18.33;18.31;18.13;17.21;13.90;0.74
70689;SPS30;58266;52.166;5.290;2023-09-19T04:00:30;3.47;3.35;2.78;1.95;15.72;15.69;15.55;14.76;11.92;0.75
70689;SPS30;58266;52.166;5.290;2023-09-19T04:02:37;3.11;3.01;2.51;1.79;14.36;14.34;14.21;13.52;10.97;0.73
70689;SPS30;58266;52.166;5.290;2023-09-19T04:04:37;3.84;3.71;3.08;2.17;17.46;17.43;17.27;16.40;13.26;0.74
70689;SPS30;58266;52.166;5.290;2023-09-19T04:06:38;3.64;3.51;2.86;1.95;15.68;15.65;15.49;14.60;11.65;0.76
70689;SPS30;58266;52.166;5.290;2023-09-19T04:08:39;4.03;3.87;3.10;2.03;16.35;16.32;16.12;15.07;11.82;0.78
70689;SPS30;58266;52.166;5.290;2023-09-19T04:10:45;3.99;3.84;3.07;2.01;16.23;16.20;16.00;14.96;11.75;0.78
70689;SPS30;58266;52.166;5.290;2023-09-19T04:12:52;3.97;3.83;3.16;2.19;17.63;17.61;17.43;16.50;13.27;0.73
70689;SPS30;58266;52.166;5.290;2023-09-19T04:14:52;3.60;3.48;2.90;2.06;16.58;16.55;16.40;15.60;12.65;0.71
70689;SPS30;58266;52.166;5.290;2023-09-19T04:16:52;3.44;3.33;2.77;1.96;15.79;15.77;15.63;14.86;12.04;0.72
70689;SPS30;58266;52.166;5.290;2023-09-19T04:18:52;3.28;3.17;2.63;1.85;14.86;14.83;14.69;13.94;11.26;0.72
70689;SPS30;58266;52.166;5.290;2023-09-19T04:20:53;3.36;3.25;2.69;1.90;15.29;15.26;15.12;14.36;11.61;0.71
70689;SPS30;58266;52.166;5.290;2023-09-19T04:22:55;3.08;2.99;2.54;1.88;15.07;15.05;14.93;14.31;11.76;0.67
70689;SPS30;58266;52.166;5.290;2023-09-19T04:24:55;3.42;3.31;2.77;2.00;16.05;16.03;15.89;15.15;12.34;0.70
70689;SPS30;58266;52.166;5.290;2023-09-19T04:26:55;3.93;3.81;3.20;2.30;18.51;18.49;18.33;17.48;14.24;0.69
70689;SPS30;58266;52.166;5.290;2023-09-19T04:28:56;3.34;3.24;2.75;2.03;16.27;16.25;16.13;15.44;12.68;0.68
70689;SPS30;58266;52.166;5.290;2023-09-19T04:30:57;3.09;3.00;2.54;1.87;15.06;15.04;14.92;14.29;11.74;0.68
70689;SPS30;58266;52.166;5.290;2023-09-19T04:32:58;3.13;3.04;2.59;1.92;15.44;15.43;15.31;14.68;12.09;0.70
70689;SPS30;58266;52.166;5.290;2023-09-19T04:34:58;3.55;3.44;2.91;2.13;17.13;17.11;16.97;16.24;13.31;0.72
70689;SPS30;58266;52.166;5.290;2023-09-19T04:36:59;3.54;3.43;2.90;2.11;16.98;16.96;16.82;16.08;13.16;0.72
70689;SPS30;58266;52.166;5.290;2023-09-19T04:38:59;3.65;3.55;3.00;2.21;17.74;17.72;17.58;16.83;13.81;0.72
70689;SPS30;58266;52.166;5.290;2023-09-19T04:40:59;3.24;3.15;2.72;2.07;16.64;16.62;16.51;15.90;13.20;0.70
70689;SPS30;58266;52.166;5.290;2023-09-19T04:42:59;3.48;3.39;2.94;2.26;18.15;18.13;18.01;17.38;14.48;0.69
70689;SPS30;58266;52.166;5.290;2023-09-19T04:45:00;3.37;3.28;2.83;2.15;17.25;17.23;17.11;16.48;13.67;0.71
70689;SPS30;58266;52.166;5.290;2023-09-19T04:47:00;3.47;3.38;2.89;2.17;17.40;17.38;17.26;16.58;13.69;0.72
70689;SPS30;58266;52.166;5.290;2023-09-19T04:49:11;3.29;3.20;2.73;2.03;16.31;16.29;16.17;15.52;12.79;0.72
70689;SPS30;58266;52.166;5.290;2023-09-19T04:51:12;3.19;3.10;2.68;2.03;16.32;16.30;16.19;15.59;12.93;0.70
70689;SPS30;58266;52.166;5.290;2023-09-19T04:53:26;3.27;3.18;2.72;2.03;16.31;16.29;16.17;15.52;12.81;0.72
70689;SPS30;58266;52.166;5.290;2023-09-19T04:55:28;3.06;2.97;2.52;1.86;14.95;14.93;14.82;14.19;11.66;0.73
70689;SPS30;58266;52.166;5.290;2023-09-19T04:57:28;2.99;2.90;2.47;1.82;14.63;14.61;14.50;13.89;11.42;0.73
70689;SPS30;58266;52.166;5.290;2023-09-19T04:59:30;4.11;3.97;3.28;2.30;18.53;18.50;18.32;17.38;14.02;0.77
70689;SPS30;58266;52.166;5.290;2023-09-19T05:01:31;3.63;3.50;2.87;1.98;15.96;15.93;15.77;14.91;11.96;0.76
70689;SPS30;58266;52.166;5.290;2023-09-19T05:03:31;3.58;3.46;2.86;2.00;16.06;16.03;15.88;15.05;12.12;0.75
70689;SPS30;58266;52.166;5.290;2023-09-19T05:05:31;3.60;3.47;2.84;1.95;15.66;15.63;15.47;14.61;11.68;0.77
70689;SPS30;58266;52.166;5.290;2023-09-19T05:07:33;3.20;3.09;2.53;1.75;14.05;14.03;13.88;13.12;10.52;0.76
70689;SPS30;58266;52.166;5.290;2023-09-19T05:09:39;3.00;2.90;2.38;1.65;13.25;13.23;13.09;12.39;9.94;0.76
70689;SPS30;58266;52.166;5.290;2023-09-19T05:11:45;3.83;3.71;3.07;2.17;17.43;17.40;17.24;16.37;13.24;0.74
70689;SPS30;58266;52.166;5.290;2023-09-19T05:13:45;3.17;3.08;2.60;1.91;15.34;15.32;15.20;14.55;11.93;0.73
70689;SPS30;58266;52.166;5.290;2023-09-19T05:15:45;3.35;3.25;2.75;2.02;16.24;16.22;16.10;15.40;12.64;0.72
70689;SPS30;58266;52.166;5.290;2023-09-19T05:17:49;3.49;3.38;2.83;2.03;16.31;16.29;16.15;15.38;12.52;0.73
70689;SPS30;58266;52.166;5.290;2023-09-19T05:19:52;4.04;3.90;3.22;2.25;18.07;18.05;17.87;16.94;13.64;0.73
70689;SPS30;58266;52.166;5.290;2023-09-19T05:21:52;3.94;3.81;3.20;2.30;18.51;18.48;18.32;17.47;14.24;0.71
70689;SPS30;58266;52.166;5.290;2023-09-19T05:23:53;3.37;3.27;2.76;2.02;16.24;16.22;16.09;15.39;12.61;0.70
70689;SPS30;58266;52.166;5.290;2023-09-19T05:25:54;3.24;3.15;2.67;1.96;15.73;15.71;15.59;14.92;12.24;0.72
70689;SPS30;58266;52.166;5.290;2023-09-19T05:28:01;3.68;3.56;2.95;2.08;16.77;16.74;16.59;15.75;12.74;0.75
70689;SPS30;58266;52.166;5.290;2023-09-19T05:30:01;3.81;3.69;3.06;2.15;17.32;17.30;17.14;16.27;13.15;0.75
70689;SPS30;58266;52.166;5.290;2023-09-19T05:32:02;3.04;2.94;2.43;1.71;13.77;13.75;13.62;12.92;10.44;0.76
70689;SPS30;58266;52.166;5.290;2023-09-19T05:34:02;3.47;3.35;2.77;1.94;15.62;15.60;15.45;14.65;11.82;0.77
70689;SPS30;58266;52.166;5.290;2023-09-19T05:36:11;3.30;3.20;2.67;1.90;15.31;15.29;15.15;14.42;11.71;0.76
70689;SPS30;58266;52.166;5.290;2023-09-19T05:38:11;3.32;3.21;2.70;1.95;15.71;15.69;15.56;14.85;12.12;0.75
70689;SPS30;58266;52.166;5.290;2023-09-19T05:40:12;3.95;3.82;3.21;2.32;18.68;18.66;18.50;17.66;14.41;0.75
70689;SPS30;58266;52.166;5.290;2023-09-19T05:42:13;3.23;3.14;2.66;1.95;15.66;15.64;15.51;14.84;12.17;0.75
70689;SPS30;58266;52.166;5.290;2023-09-19T05:44:14;3.20;3.11;2.67;2.01;16.12;16.10;15.98;15.36;12.71;0.74
70689;SPS30;58266;52.166;5.290;2023-09-19T05:46:14;2.95;2.87;2.49;1.92;15.37;15.35;15.25;14.72;12.25;0.73
70689;SPS30;58266;52.166;5.290;2023-09-19T05:48:14;3.21;3.14;2.75;2.14;17.20;17.18;17.08;16.53;13.83;0.71
70689;SPS30;58266;52.166;5.290;2023-09-19T05:50:15;3.13;3.06;2.69;2.12;17.02;17.00;16.91;16.39;13.75;0.69
70689;SPS30;58266;52.166;5.290;2023-09-19T05:52:23;3.26;3.18;2.79;2.19;17.55;17.54;17.44;16.88;14.14;0.69
70689;SPS30;58266;52.166;5.290;2023-09-19T05:54:31;2.96;2.88;2.49;1.90;15.23;15.21;15.11;14.56;12.08;0.70
70689;SPS30;58266;52.166;5.290;2023-09-19T05:56:32;3.45;3.35;2.84;2.09;16.81;16.78;16.65;15.95;13.10;0.72
70689;SPS30;58266;52.166;5.290;2023-09-19T05:58:32;3.02;2.93;2.51;1.88;15.06;15.04;14.93;14.34;11.84;0.70
70689;SPS30;58266;52.166;5.290;2023-09-19T06:00:33;3.47;3.38;2.90;2.18;17.54;17.52;17.39;16.73;13.84;0.70
70689;SPS30;58266;52.166;5.290;2023-09-19T06:02:33;3.45;3.35;2.85;2.11;16.96;16.94;16.81;16.12;13.26;0.72
70689;SPS30;58266;52.166;5.290;2023-09-19T06:04:33;3.34;3.23;2.71;1.95;15.65;15.63;15.50;14.77;12.03;0.73
70689;SPS30;58266;52.166;5.290;2023-09-19T06:06:33;3.54;3.43;2.88;2.09;16.78;16.76;16.62;15.86;12.94;0.73
70689;SPS30;58266;52.166;5.290;2023-09-19T06:08:33;3.22;3.13;2.65;1.95;15.66;15.64;15.51;14.85;12.19;0.72
70689;SPS30;58266;52.166;5.290;2023-09-19T06:10:33;3.59;3.48;2.93;2.12;17.02;17.00;16.86;16.09;13.13;0.72
70689;SPS30;58266;52.166;5.290;2023-09-19T06:12:37;3.50;3.39;2.85;2.06;16.59;16.57;16.43;15.68;12.80;0.72
70689;SPS30;58266;52.166;5.290;2023-09-19T06:14:38;3.74;3.62;3.03;2.17;17.45;17.42;17.27;16.45;13.39;0.73
70689;SPS30;58266;52.166;5.290;2023-09-19T06:16:39;4.56;4.40;3.61;2.49;20.06;20.03;19.83;18.75;15.04;0.75
70689;SPS30;58266;52.166;5.290;2023-09-19T06:18:39;3.83;3.69;3.02;2.07;16.64;16.61;16.44;15.52;12.41;0.75
70689;SPS30;58266;52.166;5.290;2023-09-19T06:20:39;4.34;4.19;3.44;2.38;19.15;19.12;18.93;17.90;14.37;0.75
70689;SPS30;58266;52.166;5.290;2023-09-19T06:22:41;3.80;3.67;3.04;2.13;17.16;17.13;16.97;16.10;13.00;0.75
70689;SPS30;58266;52.166;5.290;2023-09-19T06:24:41;3.81;3.69;3.06;2.16;17.39;17.36;17.20;16.34;13.22;0.75
70689;SPS30;58266;52.166;5.290;2023-09-19T06:26:41;3.29;3.19;2.66;1.90;15.27;15.25;15.11;14.39;11.68;0.74
70689;SPS30;58266;52.166;5.290;2023-09-19T06:28:41;3.99;3.86;3.22;2.31;18.56;18.53;18.37;17.49;14.22;0.74
70689;SPS30;58266;52.166;5.290;2023-09-19T06:30:41;4.27;4.13;3.39;2.35;18.95;18.92;18.73;17.73;14.25;0.77
70689;SPS30;58266;52.166;5.290;2023-09-19T06:32:41;4.13;3.99;3.30;2.31;18.60;18.58;18.40;17.45;14.07;0.76
70689;SPS30;58266;52.166;5.290;2023-09-19T06:34:42;3.68;3.56;2.97;2.12;17.03;17.01;16.86;16.04;13.03;0.75
70689;SPS30;58266;52.166;5.290;2023-09-19T06:36:42;4.37;4.22;3.45;2.37;19.07;19.04;18.84;17.80;14.24;0.77
70689;SPS30;58266;52.166;5.290;2023-09-19T06:38:43;4.00;3.87;3.20;2.24;18.03;18.00;17.83;16.91;13.64;0.76
70689;SPS30;58266;52.166;5.290;2023-09-19T06:40:43;3.82;3.69;3.06;2.15;17.30;17.28;17.12;16.25;13.13;0.76
70689;SPS30;58266;52.166;5.290;2023-09-19T06:42:44;3.55;3.43;2.82;1.97;15.85;15.82;15.67;14.84;11.95;0.76
70689;SPS30;58266;52.166;5.290;2023-09-19T06:44:45;3.69;3.57;2.94;2.05;16.52;16.50;16.34;15.48;12.47;0.76
70689;SPS30;58266;52.166;5.290;2023-09-19T06:46:45;4.00;3.87;3.19;2.22;17.90;17.87;17.70;16.76;13.50;0.77
70689;SPS30;58266;52.166;5.290;2023-09-19T06:48:45;3.83;3.71;3.10;2.21;17.79;17.77;17.61;16.76;13.62;0.74
70689;SPS30;58266;52.166;5.290;2023-09-19T06:50:45;3.70;3.58;3.01;2.17;17.43;17.41;17.26;16.46;13.42;0.74
70689;SPS30;58266;52.166;5.290;2023-09-19T06:52:45;3.86;3.74;3.11;2.21;17.78;17.76;17.60;16.74;13.57;0.74
70689;SPS30;58266;52.166;5.290;2023-09-19T06:54:46;4.22;4.08;3.36;2.34;18.81;18.78;18.60;17.61;14.17;0.75
70689;SPS30;58266;52.166;5.290;2023-09-19T06:56:46;4.06;3.92;3.24;2.27;18.27;18.24;18.07;17.13;13.82;0.75
70689;SPS30;58266;52.166;5.290;2023-09-19T06:58:46;4.25;4.11;3.41;2.41;19.38;19.35;19.17;18.21;14.73;0.75
70689;SPS30;58266;52.166;5.290;2023-09-19T07:00:46;4.01;3.88;3.22;2.27;18.26;18.23;18.06;17.16;13.88;0.75
70689;SPS30;58266;52.166;5.290;2023-09-19T07:02:56;4.07;3.94;3.28;2.33;18.76;18.73;18.57;17.66;14.32;0.73
70689;SPS30;58266;52.166;5.290;2023-09-19T07:04:56;3.80;3.68;3.06;2.18;17.51;17.49;17.33;16.49;13.37;0.74
70689;SPS30;58266;52.166;5.290;2023-09-19T07:06:56;4.28;4.14;3.43;2.41;19.36;19.33;19.14;18.16;14.66;0.76
70689;SPS30;58266;52.166;5.290;2023-09-19T07:08:57;4.08;3.94;3.27;2.30;18.48;18.46;18.28;17.35;14.02;0.76
70689;SPS30;58266;52.166;5.290;2023-09-19T07:10:57;4.13;3.98;3.24;2.20;17.69;17.66;17.47;16.46;13.11;0.78
70689;SPS30;58266;52.166;5.290;2023-09-19T07:13:00;4.13;3.99;3.26;2.24;18.02;18.00;17.81;16.82;13.46;0.77
70689;SPS30;58266;52.166;5.290;2023-09-19T07:15:01;4.03;3.88;3.15;2.13;17.14;17.11;16.93;15.93;12.67;0.79
70689;SPS30;58266;52.166;5.290;2023-09-19T07:17:01;4.52;4.35;3.54;2.39;19.27;19.24;19.03;17.92;14.26;0.78
70689;SPS30;58266;52.166;5.290;2023-09-19T07:19:01;4.37;4.22;3.47;2.40;19.29;19.26;19.06;18.03;14.47;0.76
70689;SPS30;58266;52.166;5.290;2023-09-19T07:21:01;3.91;3.78;3.10;2.15;17.33;17.30;17.13;16.21;13.02;0.75
70689;SPS30;58266;52.166;5.290;2023-09-19T07:23:01;4.21;4.07;3.36;2.35;18.93;18.90;18.72;17.75;14.31;0.75
70689;SPS30;58266;52.166;5.290;2023-09-19T07:25:02;3.89;3.76;3.10;2.17;17.47;17.44;17.28;16.38;13.21;0.76
70689;SPS30;58266;52.166;5.290;2023-09-19T07:27:02;4.09;3.95;3.23;2.21;17.81;17.78;17.59;16.61;13.28;0.77
70689;SPS30;58266;52.166;5.290;2023-09-19T07:29:02;4.33;4.16;3.33;2.18;17.55;17.52;17.31;16.18;12.69;0.80
70689;SPS30;58266;52.166;5.290;2023-09-19T07:31:02;4.69;4.52;3.62;2.39;19.23;19.19;18.97;17.75;13.97;0.80
70689;SPS30;58266;52.166;5.290;2023-09-19T07:33:03;4.77;4.59;3.71;2.48;20.01;19.98;19.75;18.56;14.70;0.78
70689;SPS30;58266;52.166;5.290;2023-09-19T07:35:03;4.15;4.00;3.23;2.16;17.40;17.37;17.18;16.13;12.77;0.78
70689;SPS30;58266;52.166;5.290;2023-09-19T07:37:04;4.41;4.26;3.49;2.40;19.28;19.25;19.05;18.00;14.41;0.77
70689;SPS30;58266;52.166;5.290;2023-09-19T07:39:04;4.28;4.13;3.37;2.30;18.55;18.52;18.32;17.28;13.81;0.77
70689;SPS30;58266;52.166;5.290;2023-09-19T07:41:05;4.26;4.10;3.32;2.23;17.97;17.94;17.74;16.68;13.23;0.78
70689;SPS30;58266;52.166;5.290;2023-09-19T07:43:05;4.15;4.00;3.27;2.25;18.07;18.04;17.86;16.86;13.49;0.77
70689;SPS30;58266;52.166;5.290;2023-09-19T07:45:05;4.55;4.39;3.57;2.42;19.53;19.50;19.29;18.17;14.48;0.79
70689;SPS30;58266;52.166;5.290;2023-09-19T07:47:05;4.34;4.17;3.36;2.23;17.97;17.94;17.74;16.63;13.13;0.80
70689;SPS30;58266;52.166;5.290;2023-09-19T07:49:06;4.53;4.36;3.52;2.35;18.97;18.94;18.72;17.58;13.92;0.79